createdAt,value
2018-09-10T10:08:17.326Z,36.87
2018-09-10T10:10:45.318Z,36.17
2018-09-10T10:13:13.391Z,36.28
2018-09-10T10:15:41.414Z,36.94
2018-09-10T10:18:09.278Z,36.52
2018-09-10T10:20:37.292Z,37.89
2018-09-10T10:23:05.278Z,35.33
2018-09-10T10:25:33.259Z,34.55
2018-09-10T10:28:01.465Z,35.09
2018-09-10T10:30:29.433Z,36.62
2018-09-10T10:32:57.488Z,36.51
2018-09-10T10:35:25.437Z,37.59
2018-09-10T10:37:54.212Z,35.52
2018-09-10T10:40:22.161Z,35.97
2018-09-10T10:42:50.173Z,36.73
2018-09-10T10:45:18.155Z,36.28
2018-09-10T10:47:46.171Z,35.11
2018-09-10T10:50:16.105Z,34.95
2018-09-10T10:52:44.050Z,33.20
2018-09-10T10:55:12.257Z,32.91
2018-09-10T10:57:40.411Z,33.10
2018-09-10T11:00:08.605Z,32.77
2018-09-10T11:02:36.758Z,33.20
2018-09-10T11:05:05.287Z,33.32
2018-09-10T11:07:33.524Z,32.77
2018-09-10T11:10:01.619Z,34.25
2018-09-10T11:12:29.647Z,32.31
2018-09-10T11:14:57.775Z,32.07
2018-09-10T11:17:25.845Z,32.03
2018-09-10T11:19:54.149Z,32.15
2018-09-10T11:22:22.973Z,33.13
2018-09-10T11:24:51.944Z,32.89
2018-09-10T11:27:20.924Z,33.27
2018-09-10T11:29:48.855Z,31.92
2018-09-10T11:32:16.939Z,31.46
2018-09-10T11:34:45.231Z,30.88
2018-09-10T11:37:13.173Z,31.13
2018-09-10T11:39:41.379Z,30.61
2018-09-10T11:42:09.409Z,29.82
2018-09-10T11:44:39.289Z,29.08
2018-09-10T11:47:07.610Z,28.59
2018-09-10T11:49:37.116Z,28.69
2018-09-10T11:52:06.351Z,29.60
2018-09-10T11:54:34.305Z,31.18
2018-09-10T11:57:02.392Z,31.83
2018-09-10T11:59:30.347Z,31.95
2018-09-10T12:01:58.477Z,30.26
2018-09-10T12:04:26.852Z,31.62
2018-09-10T12:06:54.942Z,30.98
2018-09-10T12:09:23.040Z,30.35
2018-09-10T12:11:51.193Z,29.75
2018-09-10T12:14:19.150Z,30.51
2018-09-10T12:16:47.142Z,32.23
2018-09-10T12:19:15.534Z,31.72
2018-09-10T12:21:43.484Z,29.85
2018-09-10T12:24:11.594Z,29.61
2018-09-10T12:26:40.509Z,29.01
2018-09-10T12:29:08.528Z,30.54
2018-09-10T12:31:36.617Z,30.99
2018-09-10T12:34:05.285Z,29.50
2018-09-10T12:36:33.493Z,30.64
2018-09-10T12:39:01.604Z,30.55
2018-09-10T12:41:31.189Z,31.24
2018-09-10T12:44:00.653Z,31.93
2018-09-10T12:46:33.196Z,33.13
2018-09-10T12:49:01.234Z,31.68
2018-09-10T12:51:29.207Z,32.36
2018-09-10T12:53:57.135Z,33.20
2018-09-10T12:56:25.227Z,33.05
2018-09-10T12:58:53.406Z,32.74
2018-09-10T13:01:21.366Z,32.44
2018-09-10T13:03:49.899Z,33.52
2018-09-10T13:06:17.877Z,32.01
2018-09-10T13:08:45.820Z,30.87
2018-09-10T13:11:14.295Z,32.45
2018-09-10T13:13:42.327Z,33.02
2018-09-10T13:16:10.463Z,32.46
2018-09-10T13:18:39.354Z,32.31
2018-09-10T13:21:07.375Z,31.83
2018-09-10T13:23:35.649Z,30.95
2018-09-10T13:26:03.706Z,32.60
2018-09-10T13:28:31.847Z,33.56
2018-09-10T13:31:00.715Z,33.03
2018-09-10T13:33:28.840Z,32.48
2018-09-10T13:35:56.763Z,33.55
2018-09-10T13:38:24.804Z,33.02
2018-09-10T13:40:52.965Z,33.07
2018-09-10T13:43:22.433Z,33.87
2018-09-10T13:45:50.991Z,32.29
2018-09-10T13:48:31.018Z,32.07
2018-09-10T13:50:58.957Z,31.04
2018-09-10T13:53:26.864Z,31.75
2018-09-10T13:55:54.951Z,32.50
2018-09-10T13:58:22.938Z,31.85
2018-09-10T14:00:51.134Z,30.71
2018-09-10T14:03:19.242Z,30.19
2018-09-10T14:05:47.269Z,31.96
2018-09-10T14:08:17.387Z,31.69
2018-09-10T14:10:48.175Z,30.82
2018-09-10T14:13:16.240Z,31.98
2018-09-10T14:15:44.300Z,32.49
2018-09-10T14:18:12.345Z,33.64
2018-09-10T14:20:41.260Z,33.08
2018-09-10T14:23:09.285Z,32.20
2018-09-10T14:25:37.270Z,32.89
2018-09-10T14:28:05.545Z,32.69
2018-09-10T14:30:33.852Z,31.99
2018-09-10T14:33:02.179Z,33.70
2018-09-10T14:35:30.271Z,33.38
2018-09-10T14:37:58.382Z,32.40
2018-09-10T14:40:26.714Z,32.93
2018-09-10T14:42:54.855Z,32.72
2018-09-10T14:45:22.784Z,32.64
2018-09-10T14:47:50.803Z,33.89
2018-09-10T14:50:18.781Z,33.54
2018-09-10T14:52:47.082Z,31.97
2018-09-10T14:55:14.985Z,32.83
2018-09-10T14:57:42.962Z,32.65
2018-09-10T15:00:15.334Z,33.53
2018-09-10T15:02:43.289Z,33.05
2018-09-10T15:05:11.352Z,33.94
2018-09-10T15:07:39.487Z,33.66
2018-09-10T15:10:07.468Z,34.49
2018-09-10T15:12:35.632Z,34.69
2018-09-10T15:15:03.728Z,33.45
2018-09-10T15:17:31.810Z,33.62
2018-09-10T15:19:59.779Z,33.93
2018-09-10T15:22:30.671Z,34.41
2018-09-10T15:24:58.673Z,33.39
2018-09-10T15:27:26.747Z,34.70
2018-09-10T15:29:54.716Z,33.28
2018-09-10T15:32:22.661Z,32.59
2018-09-10T15:34:50.765Z,33.61
2018-09-10T15:37:18.773Z,33.79
2018-09-10T15:39:47.208Z,34.71
2018-09-10T15:42:15.139Z,35.69
2018-09-10T15:44:44.010Z,35.14
2018-09-10T15:47:12.015Z,35.28
2018-09-10T15:49:40.155Z,35.38
2018-09-10T15:52:08.236Z,35.27
2018-09-10T15:54:36.248Z,35.49
2018-09-10T15:57:04.730Z,35.50
2018-09-10T15:59:36.224Z,34.86
2018-09-10T16:02:04.767Z,35.59
2018-09-10T16:04:32.715Z,34.68
2018-09-10T16:07:00.744Z,35.48
2018-09-10T16:09:28.837Z,35.60
2018-09-10T16:11:56.844Z,35.92
2018-09-10T16:14:24.837Z,35.36
2018-09-10T16:16:53.099Z,34.90
2018-09-10T16:19:21.898Z,35.84
2018-09-10T16:21:50.051Z,35.85
2018-09-10T16:24:17.934Z,35.58
2018-09-10T16:26:46.053Z,35.81
2018-09-10T16:29:13.951Z,35.21
2018-09-10T16:31:42.660Z,35.26
2018-09-10T16:34:10.583Z,35.34
2018-09-10T16:36:38.566Z,35.44
2018-09-10T16:39:08.535Z,35.61
2018-09-10T16:41:37.042Z,34.76
2018-09-10T16:44:05.049Z,35.68
2018-09-10T16:46:33.311Z,36.07
2018-09-10T16:49:01.527Z,36.33
2018-09-10T16:51:29.453Z,36.36
2018-09-10T16:53:57.452Z,36.38
2018-09-10T16:56:25.443Z,36.10
2018-09-10T16:58:53.465Z,36.44
2018-09-10T17:01:21.427Z,36.60
2018-09-10T17:03:49.897Z,37.12
2018-09-10T17:06:17.953Z,37.69
2018-09-10T17:08:46.207Z,37.36
2018-09-10T17:11:14.164Z,38.07
2018-09-10T17:13:42.252Z,38.01
2018-09-10T17:16:10.298Z,37.70
2018-09-10T17:18:40.259Z,38.19
2018-09-10T17:21:08.367Z,38.54
2018-09-10T17:23:36.364Z,38.87
2018-09-10T17:26:04.328Z,38.94
2018-09-10T17:28:32.409Z,39.00
2018-09-10T17:31:00.510Z,39.20
2018-09-10T17:33:28.545Z,39.46
2018-09-10T17:35:56.507Z,39.21
2018-09-10T17:38:24.571Z,39.12
2018-09-10T17:40:52.690Z,39.56
2018-09-10T17:43:20.788Z,39.29
2018-09-10T17:45:49.108Z,39.76
2018-09-10T17:48:17.058Z,40.20
2018-09-10T17:50:45.014Z,40.31
2018-09-10T17:53:13.761Z,39.91
2018-09-10T17:55:42.348Z,40.05
2018-09-10T17:58:10.265Z,40.50
2018-09-10T18:00:39.676Z,40.87
2018-09-10T18:03:09.057Z,41.35
2018-09-10T18:05:37.695Z,42.12
2018-09-10T18:08:06.161Z,41.95
2018-09-10T18:10:35.225Z,41.63
2018-09-10T18:13:03.174Z,41.36
2018-09-10T18:15:32.962Z,41.84
2018-09-10T18:18:01.778Z,42.04
2018-09-10T18:20:29.982Z,41.97
2018-09-10T18:22:58.242Z,42.45
2018-09-10T18:25:26.966Z,42.71
2018-09-10T18:27:54.965Z,42.70
2018-09-10T18:30:23.006Z,42.72
2018-09-10T18:32:50.965Z,42.93
2018-09-10T18:35:19.092Z,43.30
2018-09-10T18:37:47.581Z,43.58
2018-09-10T18:40:15.656Z,43.91
2018-09-10T18:42:43.792Z,43.77
2018-09-10T18:45:11.763Z,44.01
2018-09-10T18:47:39.702Z,44.10
2018-09-10T18:50:07.736Z,45.01
2018-09-10T18:52:35.938Z,44.42
2018-09-10T18:55:04.075Z,45.13
2018-09-10T18:57:32.133Z,45.02
2018-09-10T19:00:00.180Z,45.59
2018-09-10T19:02:28.053Z,45.07
2018-09-10T19:04:57.061Z,45.33
2018-09-10T19:07:25.028Z,45.54
2018-09-10T19:09:52.925Z,45.22
2018-09-10T19:12:21.067Z,45.26
2018-09-10T19:14:49.047Z,45.65
2018-09-10T19:17:17.143Z,44.97
2018-09-10T19:19:45.241Z,45.99
2018-09-10T19:22:13.198Z,45.62
2018-09-10T19:24:41.438Z,45.88
2018-09-10T19:27:09.493Z,45.76
2018-09-10T19:29:37.685Z,45.74
2018-09-10T19:32:05.649Z,46.11
2018-09-10T19:34:33.643Z,46.17
2018-09-10T19:37:01.594Z,46.05
2018-09-10T19:39:29.648Z,46.00
2018-09-10T19:41:57.668Z,46.50
2018-09-10T19:44:25.669Z,46.36
2018-09-10T19:46:53.627Z,46.10
2018-09-10T19:49:21.526Z,46.79
2018-09-10T19:51:49.659Z,46.43
2018-09-10T19:54:17.685Z,46.33
2018-09-10T19:56:45.638Z,46.80
2018-09-10T19:59:13.644Z,46.93
2018-09-10T20:01:41.676Z,47.17
2018-09-10T20:04:09.565Z,47.57
2018-09-10T20:06:37.519Z,47.13
2018-09-10T20:09:07.728Z,46.40
2018-09-10T20:11:35.801Z,46.60
2018-09-10T20:14:03.831Z,46.82
2018-09-10T20:16:31.763Z,47.51
2018-09-10T20:18:59.756Z,47.33
2018-09-10T20:21:27.742Z,47.80
2018-09-10T20:23:55.821Z,47.72
2018-09-10T20:26:23.710Z,47.74
2018-09-10T20:28:52.019Z,47.86
2018-09-10T20:31:19.898Z,47.89
2018-09-10T20:33:53.230Z,48.02
2018-09-10T20:36:21.155Z,47.81
2018-09-10T20:38:49.272Z,47.93
2018-09-10T20:41:19.541Z,48.79
2018-09-10T20:43:47.580Z,48.81
2018-09-10T20:46:15.546Z,48.96
2018-09-10T20:48:43.587Z,49.30
2018-09-10T20:51:11.659Z,49.26
2018-09-10T20:53:39.627Z,49.59
2018-09-10T20:56:07.799Z,49.52
2018-09-10T20:58:35.988Z,49.38
2018-09-10T21:01:04.088Z,49.69
2018-09-10T21:03:32.111Z,49.78
2018-09-10T21:06:00.143Z,49.96
2018-09-10T21:08:30.386Z,50.33
2018-09-10T21:10:58.406Z,50.18
2018-09-10T21:13:26.336Z,50.40
2018-09-10T21:15:54.288Z,50.57
2018-09-10T21:18:22.344Z,50.29
2018-09-10T21:20:50.249Z,50.91
2018-09-10T21:23:18.243Z,51.34
2018-09-10T21:25:46.222Z,50.95
2018-09-10T21:28:14.242Z,51.17
2018-09-10T21:30:42.289Z,50.97
2018-09-10T21:33:10.327Z,50.88
2018-09-10T21:35:38.585Z,51.28
2018-09-10T21:38:07.790Z,51.64
2018-09-10T21:40:36.150Z,51.41
2018-09-10T21:43:04.116Z,51.59
2018-09-10T21:45:32.273Z,51.24
2018-09-10T21:48:05.341Z,51.44
2018-09-10T21:50:33.394Z,51.24
2018-09-10T21:53:01.648Z,51.49
2018-09-10T21:55:29.744Z,51.52
2018-09-10T21:57:57.632Z,50.81
2018-09-10T22:00:25.971Z,50.38
2018-09-10T22:02:55.137Z,50.19
2018-09-10T22:05:23.258Z,49.92
2018-09-10T22:07:51.414Z,50.34
2018-09-10T22:10:19.382Z,50.06
2018-09-10T22:12:47.475Z,50.62
2018-09-10T22:15:15.377Z,53.98
2018-09-10T22:17:43.762Z,57.19
2018-09-10T22:20:11.767Z,59.19
2018-09-10T22:22:39.739Z,58.59
2018-09-10T22:25:07.702Z,57.92
2018-09-10T22:27:35.810Z,56.76
2018-09-10T22:30:04.017Z,56.11
2018-09-10T22:32:31.928Z,55.76
2018-09-10T22:34:59.846Z,54.88
2018-09-10T22:37:27.747Z,54.66
2018-09-10T22:39:55.693Z,55.73
2018-09-10T22:42:25.585Z,57.38
2018-09-10T22:44:53.530Z,58.69
2018-09-10T22:47:21.463Z,59.80
2018-09-10T22:49:49.437Z,61.56
2018-09-10T22:52:17.341Z,62.75
2018-09-10T22:54:45.483Z,65.03
2018-09-10T22:57:13.408Z,65.48
2018-09-10T22:59:41.870Z,65.83
2018-09-10T23:02:09.872Z,65.96
2018-09-10T23:04:37.817Z,66.18
2018-09-10T23:07:05.840Z,67.18
2018-09-10T23:09:33.938Z,67.72
2018-09-10T23:12:01.901Z,69.27
2018-09-10T23:14:30.580Z,69.25
2018-09-10T23:16:59.479Z,69.02
2018-09-10T23:19:27.756Z,69.06
2018-09-10T23:21:55.690Z,68.78
2018-09-10T23:24:23.795Z,68.13
2018-09-10T23:26:51.779Z,68.24
2018-09-10T23:29:19.692Z,69.08
2018-09-10T23:31:48.330Z,70.16
2018-09-10T23:34:16.237Z,72.19
2018-09-10T23:36:44.920Z,71.85
2018-09-10T23:39:12.755Z,72.22
2018-09-10T23:41:40.775Z,72.82
2018-09-10T23:44:08.750Z,73.53
2018-09-10T23:46:37.052Z,73.81
2018-09-10T23:49:05.291Z,73.24
2018-09-10T23:51:33.388Z,73.85
2018-09-10T23:54:02.009Z,72.63
2018-09-10T23:56:30.005Z,72.23
2018-09-10T23:58:57.961Z,72.83
